Time;durP1;ratioP1;P1;durP2;ratioP2;P2;SDS_P1;SDS_P2;PMS_P1;PMS_P2;Temp;Humidity;BMP_temperature;BMP_pressure;BME280_temperature;BME280_humidity;BME280_pressure;Samples;Min_cycle;Max_cycle;Signal;HPM_P1;HPM_P2
2023/01/13 00:02:26;;;;;;;0.50;0.50;;;;;;;7.34;100.00;99767.81;5050123;28;20205;-71
2023/01/13 00:04:53;;;;;;;0.40;0.40;;;;;;;7.31;100.00;99773.78;5050291;28;20228;-70
2023/01/13 00:07:19;;;;;;;0.60;0.60;;;;;;;7.34;100.00;99775.44;5050007;28;20208;-70
2023/01/13 00:09:48;;;;;;;0.50;0.50;;;;;;;7.32;100.00;99767.84;5049783;28;20231;-71
2023/01/13 00:12:14;;;;;;;0.60;0.60;;;;;;;7.33;100.00;99768.69;5050008;28;20819;-71
2023/01/13 00:14:41;;;;;;;0.50;0.50;;;;;;;7.21;100.00;99753.50;5048567;28;20600;-70
2023/01/13 00:17:08;;;;;;;0.50;0.50;;;;;;;7.37;100.00;99767.75;5047442;28;20205;-70
2023/01/13 00:19:35;;;;;;;0.60;0.60;;;;;;;7.37;100.00;99767.75;5050083;28;20208;-71
2023/01/13 00:22:01;;;;;;;0.70;0.70;;;;;;;7.34;100.00;99762.69;5050064;28;20262;-70
2023/01/13 00:24:28;;;;;;;0.70;0.70;;;;;;;7.30;100.00;99772.09;5050082;28;20205;-71
2023/01/13 00:26:56;;;;;;;0.63;0.63;;;;;;;7.29;100.00;99775.53;5049538;28;20212;-71
2023/01/13 00:29:23;;;;;;;0.53;0.53;;;;;;;7.29;100.00;99770.41;5046531;28;20212;-70
2023/01/13 00:31:50;;;;;;;0.63;0.63;;;;;;;7.28;100.00;99768.72;5050311;28;20712;-71
2023/01/13 00:34:17;;;;;;;0.53;0.53;;;;;;;7.25;100.00;99770.47;5048029;28;20204;-70
2023/01/13 00:36:43;;;;;;;0.40;0.40;;;;;;;7.29;100.00;99767.88;5047760;28;20204;-71
2023/01/13 00:39:10;;;;;;;0.40;0.40;;;;;;;7.30;100.00;99764.44;5049452;28;20691;-70
2023/01/13 00:44:23;;;;;;;0.50;0.50;;;;;;;7.20;100.00;99760.31;5048803;28;20208;-70
2023/01/13 00:46:50;;;;;;;0.40;0.40;;;;;;;7.25;100.00;99762.81;5049493;28;20296;-71
2023/01/13 00:49:16;;;;;;;0.50;0.50;;;;;;;7.22;100.00;99756.03;5049210;28;20201;-71
2023/01/13 00:51:43;;;;;;;0.60;0.60;;;;;;;7.25;100.00;99765.34;5048667;28;20692;-71
2023/01/13 00:54:10;;;;;;;0.50;0.50;;;;;;;7.25;100.00;99758.56;5048848;28;20572;-71
2023/01/13 00:56:36;;;;;;;0.57;0.57;;;;;;;7.19;100.00;99758.63;5048250;28;20208;-70
2023/01/13 00:59:03;;;;;;;0.70;0.70;;;;;;;7.24;100.00;99761.97;5049803;28;20727;-70
2023/01/13 01:01:31;;;;;;;0.50;0.50;;;;;;;7.24;100.00;99756.84;5049509;28;20227;-70
2023/01/13 01:03:58;;;;;;;0.70;0.70;;;;;;;7.20;100.00;99760.31;5047572;28;20208;-70
2023/01/13 01:06:27;;;;;;;0.53;0.53;;;;;;;7.21;100.00;99767.09;5049063;28;20611;-70
2023/01/13 01:08:55;;;;;;;0.40;0.40;;;;;;;7.17;100.00;99755.22;5049171;28;20212;-70
2023/01/13 01:11:23;;;;;;;0.40;0.40;;;;;;;7.18;100.00;99751.84;5049680;28;20604;-70
2023/01/13 01:13:51;;;;;;;0.50;0.50;;;;;;;7.20;100.00;99760.31;5049291;28;20550;-71
2023/01/13 01:16:20;;;;;;;0.57;0.57;;;;;;;7.18;100.00;99756.94;5048371;28;20212;-71
2023/01/13 01:18:50;;;;;;;0.93;0.93;;;;;;;7.11;100.00;99744.28;5046632;28;20211;-70
2023/01/13 01:21:18;;;;;;;0.50;0.50;;;;;;;7.15;100.00;99756.97;5053827;28;20196;-71
2023/01/13 01:23:45;;;;;;;0.50;0.50;;;;;;;7.07;100.00;99740.94;5053201;28;20204;-70
2023/01/13 01:26:14;;;;;;;0.43;0.43;;;;;;;7.19;100.00;99755.22;5053368;28;20208;-71
2023/01/13 01:28:41;;;;;;;0.50;0.50;;;;;;;7.19;100.00;99750.97;5053249;28;20219;-71
2023/01/13 01:31:09;;;;;;;0.50;0.50;;;;;;;7.18;100.00;99756.94;5050851;28;20196;-70
2023/01/13 01:33:36;;;;;;;0.60;0.60;;;;;;;7.15;100.00;99751.88;5046723;28;20220;-71
2023/01/13 01:36:04;;;;;;;0.67;0.67;;;;;;;7.15;100.00;99749.31;5052988;28;20212;-71
2023/01/13 01:38:31;;;;;;;0.50;0.50;;;;;;;7.18;100.00;99746.72;5053050;28;20207;-71
2023/01/13 01:40:58;;;;;;;0.40;0.40;;;;;;;7.21;100.00;99745.84;5052596;28;20201;-70
2023/01/13 01:44:01;;;;;;;0.60;0.60;;;;;;;7.18;100.00;99741.63;5051527;28;20196;-71
2023/01/13 01:46:30;;;;;;;0.60;0.60;;;;;;;7.17;100.00;99739.94;5053079;28;20207;-70
2023/01/13 01:49:02;;;;;;;0.70;0.70;;;;;;;7.17;100.00;99742.47;5051803;28;20200;-70
2023/01/13 01:51:35;;;;;;;0.50;0.50;;;;;;;7.17;100.00;99745.03;5052740;28;20205;-71
2023/01/13 01:54:04;;;;;;;0.40;0.40;;;;;;;7.15;100.00;99744.22;5052493;28;20215;-70
2023/01/13 01:56:33;;;;;;;0.50;0.50;;;;;;;7.07;100.00;99733.28;5052498;28;20204;-71
2023/01/13 01:59:00;;;;;;;0.60;0.60;;;;;;;7.12;100.00;99746.81;5052468;28;20201;-71
2023/01/13 02:01:27;;;;;;;0.40;0.40;;;;;;;7.16;100.00;99738.28;5052170;28;20205;-71
2023/01/13 02:03:59;;;;;;;0.53;0.53;;;;;;;7.14;100.00;99734.06;5052131;28;20228;-71
2023/01/13 02:06:27;;;;;;;0.70;0.70;;;;;;;7.14;100.00;99736.59;5050759;28;20282;-70
2023/01/13 02:08:56;;;;;;;0.60;0.60;;;;;;;7.09;100.00;99739.19;5053008;28;20196;-71
2023/01/13 02:14:16;;;;;;;0.50;0.50;;;;;;;7.02;100.00;99740.09;5051869;28;20200;-71
2023/01/13 02:16:52;;;;;;;0.50;0.50;;;;;;;6.99;100.00;99734.19;5052514;28;20204;-71
2023/01/13 02:19:44;;;;;;;0.70;0.70;;;;;;;6.84;100.00;99713.13;5051763;28;20254;-70
2023/01/13 02:22:24;;;;;;;0.53;0.53;;;;;;;6.99;100.00;99745.25;5052358;28;20215;-71
2023/01/13 02:25:21;;;;;;;0.70;0.70;;;;;;;6.98;100.00;99743.53;5052244;28;20621;-70
2023/01/13 02:28:12;;;;;;;0.60;0.60;;;;;;;6.97;100.00;99741.88;5051304;28;20200;-71
2023/01/13 02:33:46;;;;;;;0.40;0.40;;;;;;;7.00;100.00;99741.84;5052215;28;20223;-70
2023/01/13 02:36:21;;;;;;;0.60;0.60;;;;;;;7.02;100.00;99745.22;5051648;28;20686;-71
2023/01/13 02:38:53;;;;;;;0.40;0.40;;;;;;;7.02;100.00;99754.56;5052577;28;20202;-71
2023/01/13 02:44:16;;;;;;;0.60;0.60;;;;;;;6.92;100.00;99751.25;5051698;28;20246;-71
2023/01/13 02:46:53;;;;;;;0.50;0.50;;;;;;;6.89;100.00;99748.75;5051949;28;20212;-71
2023/01/13 02:49:30;;;;;;;0.50;0.50;;;;;;;6.99;100.00;99757.13;5051990;28;20200;-71
2023/01/13 02:52:06;;;;;;;0.50;0.50;;;;;;;6.98;100.00;99758.84;5052633;28;20746;-71
2023/01/13 02:54:35;;;;;;;0.50;0.50;;;;;;;6.99;100.00;99760.53;5049897;28;20596;-70
2023/01/13 02:57:03;;;;;;;2.33;1.10;;;;;;;6.97;100.00;99767.38;5051967;28;20224;-71
2023/01/13 02:59:31;;;;;;;0.50;0.50;;;;;;;6.99;100.00;99763.09;5051825;28;20678;-71
2023/01/13 03:02:02;;;;;;;0.43;0.43;;;;;;;6.96;100.00;99760.56;5051911;28;20669;-71
2023/01/13 03:04:54;;;;;;;0.53;0.53;;;;;;;6.93;100.00;99765.69;5050054;28;20201;-70
2023/01/13 03:08:09;;;;;;;0.50;0.50;;;;;;;6.93;100.00;99763.16;5051358;28;20292;-71
2023/01/13 03:10:47;;;;;;;0.50;0.50;;;;;;;6.93;100.00;99763.16;5051395;28;20212;-71
2023/01/13 03:13:25;;;;;;;0.60;0.60;;;;;;;6.91;100.00;99764.88;5051457;28;20224;-71
2023/01/13 03:16:00;;;;;;;0.50;0.50;;;;;;;6.92;100.00;99758.91;5051364;28;20577;-70
2023/01/13 03:18:38;;;;;;;0.60;0.60;;;;;;;6.87;100.00;99765.75;5051590;28;20664;-70
2023/01/13 03:21:09;;;;;;;0.67;0.67;;;;;;;6.86;100.00;99758.97;5052006;28;20212;-71
2023/01/13 03:23:46;;;;;;;0.50;0.50;;;;;;;6.87;100.00;99760.66;5051293;28;20251;-71
2023/01/13 03:26:19;;;;;;;0.60;0.60;;;;;;;6.83;100.00;99764.09;5051463;28;20200;-71
2023/01/13 03:28:52;;;;;;;0.60;0.60;;;;;;;6.80;100.00;99764.97;5051195;28;20631;-71
2023/01/13 03:31:25;;;;;;;0.60;0.60;;;;;;;6.79;100.00;99757.31;5050901;28;20200;-70
2023/01/13 03:33:57;;;;;;;0.57;0.57;;;;;;;6.78;100.00;99764.16;5049091;28;20294;-71
2023/01/13 03:36:28;;;;;;;0.53;0.53;;;;;;;6.74;100.00;99759.09;5050760;28;20278;-70
2023/01/13 03:38:57;;;;;;;0.60;0.60;;;;;;;6.74;100.00;99764.19;5050792;28;20311;-70
2023/01/13 03:41:28;;;;;;;0.50;0.50;;;;;;;6.74;100.00;99766.72;5050510;28;20211;-70
2023/01/13 03:44:22;;;;;;;1.17;1.17;;;;;;;6.79;100.00;99767.50;5050531;28;20189;-70
2023/01/13 03:47:00;;;;;;;0.60;0.60;;;;;;;6.75;100.00;99768.44;5050724;28;20254;-70
2023/01/13 03:49:34;;;;;;;0.70;0.70;;;;;;;6.76;100.00;99767.53;5050636;28;20208;-69
2023/01/13 03:52:05;;;;;;;0.63;0.63;;;;;;;6.73;100.00;99773.53;5050899;28;20254;-70
2023/01/13 03:54:37;;;;;;;0.77;0.77;;;;;;;6.77;100.00;99775.19;5050582;28;20300;-70
2023/01/13 03:57:08;;;;;;;0.40;0.40;;;;;;;6.76;100.00;99777.75;5051048;28;20585;-70
2023/01/13 03:59:40;;;;;;;0.57;0.57;;;;;;;6.76;100.00;99772.63;5050347;28;20201;-70
2023/01/13 04:02:10;;;;;;;0.50;0.50;;;;;;;6.74;100.00;99775.22;5050226;28;20200;-71
2023/01/13 04:04:41;;;;;;;1.00;1.00;;;;;;;6.69;100.00;99771.00;5050218;28;20302;-70
2023/01/13 04:07:16;;;;;;;0.90;0.90;;;;;;;6.69;100.00;99773.53;5050340;28;20208;-70
2023/01/13 04:09:49;;;;;;;0.50;0.50;;;;;;;6.66;100.00;99771.03;5047846;28;20209;-70
2023/01/13 04:12:23;;;;;;;0.60;0.60;;;;;;;6.59;100.00;99770.22;5050203;28;20212;-71
2023/01/13 04:14:52;;;;;;;0.60;0.60;;;;;;;6.71;100.00;99782.03;5050272;28;20204;-71
2023/01/13 04:17:19;;;;;;;0.40;0.40;;;;;;;6.73;100.00;99787.97;5050043;28;20204;-71
2023/01/13 04:19:47;;;;;;;0.60;0.60;;;;;;;6.74;100.00;99800.69;5050029;28;20208;-70
2023/01/13 04:22:14;;;;;;;0.50;0.50;;;;;;;6.74;100.00;99794.75;5049456;28;20211;-71
2023/01/13 04:24:40;;;;;;;0.50;0.50;;;;;;;6.73;100.00;99799.00;5050430;28;20196;-71
2023/01/13 04:27:07;;;;;;;0.70;0.70;;;;;;;6.75;100.00;99802.38;5049952;28;20196;-71
2023/01/13 04:29:34;;;;;;;0.50;0.50;;;;;;;6.80;100.00;99795.53;5050037;28;20201;-70
2023/01/13 04:32:01;;;;;;;1.10;1.10;;;;;;;6.83;100.00;99802.31;5049535;28;20201;-70
2023/01/13 04:34:28;;;;;;;0.50;0.50;;;;;;;6.84;100.00;99801.47;5049677;28;20243;-70
2023/01/13 04:36:56;;;;;;;0.50;0.50;;;;;;;6.83;100.00;99807.41;5049673;28;20285;-70
2023/01/13 04:39:23;;;;;;;0.50;0.50;;;;;;;6.83;100.00;99802.31;5048877;28;20641;-71
2023/01/13 04:41:58;;;;;;;0.50;0.50;;;;;;;6.76;100.00;99798.97;5049851;28;20227;-71
2023/01/13 04:44:25;;;;;;;0.50;0.50;;;;;;;6.77;100.00;99803.22;5049894;28;20205;-70
2023/01/13 04:46:52;;;;;;;0.50;0.50;;;;;;;6.84;100.00;99811.66;5049908;28;20262;-71
2023/01/13 04:49:19;;;;;;;0.53;0.53;;;;;;;6.85;100.00;99811.63;5049730;28;20200;-71
2023/01/13 04:51:46;;;;;;;0.60;0.60;;;;;;;6.91;100.00;99804.81;5049759;28;20661;-70
2023/01/13 04:54:15;;;;;;;0.50;0.50;;;;;;;6.92;100.00;99804.78;5049101;28;20217;-70
2023/01/13 04:56:41;;;;;;;0.53;0.53;;;;;;;6.89;100.00;99804.81;5049711;28;20299;-71
2023/01/13 04:59:09;;;;;;;0.60;0.60;;;;;;;6.84;100.00;99804.00;5049285;28;20208;-70
2023/01/13 05:01:36;;;;;;;0.47;0.47;;;;;;;6.79;100.00;99813.38;5048524;28;20212;-70
2023/01/13 05:04:03;;;;;;;0.57;0.57;;;;;;;6.79;100.00;99821.03;5048189;28;20197;-71
2023/01/13 05:06:30;;;;;;;0.50;0.50;;;;;;;6.73;100.00;99803.25;5048450;28;20235;-70
2023/01/13 05:08:57;;;;;;;0.40;0.40;;;;;;;6.86;100.00;99815.03;5039442;28;20208;-71
2023/01/13 05:17:02;;;;;;;0.40;0.40;;;;;;;6.87;100.00;99821.81;5045782;28;20212;-70
2023/01/13 05:19:30;;;;;;;0.50;0.50;;;;;;;6.88;100.00;99826.06;5047298;28;20602;-70
2023/01/13 05:27:27;;;;;;;0.50;0.50;;;;;;;7.06;100.00;99832.69;5048078;28;20204;-71
2023/01/13 05:29:54;;;;;;;0.40;0.40;;;;;;;7.02;100.00;99816.56;5048851;28;20207;-70
2023/01/13 05:32:22;;;;;;;0.50;0.50;;;;;;;7.17;100.00;99831.72;5049715;28;20633;-71
2023/01/13 05:34:49;;;;;;;1.07;1.07;;;;;;;7.22;100.00;99835.09;5048640;28;20223;-70
2023/01/13 05:37:17;;;;;;;0.50;0.50;;;;;;;7.17;100.00;99811.31;5049161;28;20275;-71
2023/01/13 05:45:30;;;;;;;0.50;0.50;;;;;;;7.38;100.00;99841.72;4988470;28;20221;-71
2023/01/13 05:47:57;;;;;;;2.03;1.20;;;;;;;7.43;100.00;99844.25;5022881;28;20204;-70
2023/01/13 05:50:24;;;;;;;0.50;0.50;;;;;;;7.46;100.00;99848.47;5048892;28;20231;-71
2023/01/13 05:52:51;;;;;;;0.50;0.50;;;;;;;7.49;100.00;99845.88;5048969;28;20197;-70
2023/01/13 05:55:18;;;;;;;1.60;1.60;;;;;;;7.52;100.00;99849.25;5049592;28;20585;-71
2023/01/13 05:57:46;;;;;;;0.40;0.40;;;;;;;7.53;100.00;99850.91;5049332;28;20208;-71
2023/01/13 06:00:16;;;;;;;0.40;0.40;;;;;;;7.46;100.00;99835.69;5048769;28;20205;-70
2023/01/13 06:02:43;;;;;;;0.53;0.53;;;;;;;7.49;100.00;99853.53;5049368;28;20208;-71
2023/01/13 06:05:10;;;;;;;0.50;0.50;;;;;;;7.47;100.00;99855.22;5048418;28;20224;-70
2023/01/13 06:07:36;;;;;;;0.60;0.60;;;;;;;7.46;100.00;99856.97;5052804;28;20205;-71
2023/01/13 06:10:04;;;;;;;0.60;0.60;;;;;;;7.46;100.00;99853.56;5052541;28;20622;-71
2023/01/13 06:12:30;;;;;;;0.60;0.60;;;;;;;7.42;100.00;99857.00;5052323;28;20219;-70
2023/01/13 06:14:59;;;;;;;0.60;0.60;;;;;;;7.44;100.00;99863.75;5052793;28;20684;-71
2023/01/13 06:17:25;;;;;;;0.60;0.60;;;;;;;7.48;100.00;99867.13;5052206;28;20627;-70
2023/01/13 06:19:52;;;;;;;0.70;0.70;;;;;;;7.50;100.00;99870.50;5051947;28;20205;-71
2023/01/13 06:22:23;;;;;;;0.40;0.40;;;;;;;7.50;100.00;99873.06;5052200;28;20262;-70
2023/01/13 06:24:52;;;;;;;0.60;0.60;;;;;;;7.39;100.00;99862.97;5052328;28;20199;-71
2023/01/13 06:27:20;;;;;;;0.50;0.50;;;;;;;7.49;100.00;99871.38;5051957;28;20266;-70
2023/01/13 06:29:46;;;;;;;0.70;0.70;;;;;;;7.49;100.00;99863.72;5052666;28;20208;-70
2023/01/13 06:32:18;;;;;;;0.50;0.50;;;;;;;7.54;100.00;99867.06;5052464;28;20742;-70
2023/01/13 06:34:50;;;;;;;0.40;0.40;;;;;;;7.56;100.00;99870.47;5051435;28;20271;-71
2023/01/13 06:37:20;;;;;;;0.60;0.60;;;;;;;7.58;100.00;99873.84;5051737;28;20251;-71
2023/01/13 06:39:48;;;;;;;0.43;0.43;;;;;;;7.58;100.00;99872.13;5052036;28;20297;-71
2023/01/13 06:44:59;;;;;;;0.40;0.40;;;;;;;7.63;100.00;99879.72;5051914;28;20199;-70
2023/01/13 06:47:27;;;;;;;0.60;0.60;;;;;;;7.64;100.00;99879.72;5051683;28;20208;-70
2023/01/13 06:49:54;;;;;;;0.50;0.50;;;;;;;7.65;100.00;99878.00;5052011;28;20201;-70
2023/01/13 06:52:22;;;;;;;0.50;0.50;;;;;;;7.65;100.00;99883.13;5051390;28;20270;-72
2023/01/13 06:54:49;;;;;;;0.57;0.57;;;;;;;7.66;100.00;99883.09;5049285;28;20228;-72
2023/01/13 06:57:15;;;;;;;0.60;0.60;;;;;;;7.62;100.00;99870.41;5051925;28;20197;-72
2023/01/13 06:59:42;;;;;;;0.50;0.50;;;;;;;7.70;100.00;99884.75;5048205;28;20589;-72
2023/01/13 07:02:11;;;;;;;0.40;0.40;;;;;;;7.73;100.00;99883.88;5049871;28;20255;-69
2023/01/13 07:04:39;;;;;;;0.50;0.50;;;;;;;7.71;100.00;99881.34;5049226;28;20240;-70
2023/01/13 07:07:07;;;;;;;0.63;0.63;;;;;;;7.79;100.00;99894.84;5049423;28;20204;-70
2023/01/13 07:09:34;;;;;;;0.70;0.70;;;;;;;7.82;100.00;99899.06;5051213;28;20278;-70
2023/01/13 07:12:01;;;;;;;0.50;0.50;;;;;;;7.85;100.00;99896.50;5051038;28;20592;-70
2023/01/13 07:17:12;;;;;;;1.20;1.20;;;;;;;7.82;100.00;99901.63;5048790;28;20294;-71
2023/01/13 07:19:40;;;;;;;0.40;0.40;;;;;;;7.84;100.00;99902.47;5051323;28;20205;-71
2023/01/13 07:22:07;;;;;;;0.50;0.50;;;;;;;7.79;100.00;99894.00;5049420;28;20669;-71
2023/01/13 07:24:34;;;;;;;0.50;0.50;;;;;;;7.75;100.00;99894.91;5050491;28;20207;-71
2023/01/13 07:27:00;;;;;;;0.40;0.40;;;;;;;7.73;100.00;99894.06;5050320;28;20197;-70
2023/01/13 07:29:27;;;;;;;0.40;0.40;;;;;;;7.65;100.00;99895.88;5050015;28;20220;-71
2023/01/13 07:31:54;;;;;;;0.40;0.40;;;;;;;7.43;100.00;99863.78;5046849;28;20200;-71
2023/01/13 07:34:21;;;;;;;0.50;0.50;;;;;;;7.61;100.00;99900.16;5048518;28;20224;-69
2023/01/13 07:36:49;;;;;;;0.40;0.40;;;;;;;7.58;100.00;99900.19;5049948;28;20600;-69
2023/01/13 07:39:16;;;;;;;0.50;0.50;;;;;;;7.62;100.00;99901.00;5050041;28;20200;-72
2023/01/13 07:44:26;;;;;;;0.50;0.50;;;;;;;7.65;100.00;99908.63;5049954;28;20251;-70
2023/01/13 07:46:53;;;;;;;0.53;0.53;;;;;;;7.73;100.00;99910.22;5048751;28;20200;-71
2023/01/13 07:49:20;;;;;;;0.50;0.50;;;;;;;7.79;100.00;99914.41;5049812;28;20306;-70
2023/01/13 07:51:46;;;;;;;0.50;0.50;;;;;;;7.76;100.00;99909.34;5049632;28;20342;-70
2023/01/13 07:54:15;;;;;;;0.60;0.60;;;;;;;7.78;100.00;99910.19;5049628;28;20216;-70
2023/01/13 07:56:41;;;;;;;0.50;0.50;;;;;;;7.77;100.00;99908.50;5049127;28;20204;-69
2023/01/13 07:59:08;;;;;;;0.60;0.60;;;;;;;7.84;100.00;99915.22;5049674;28;20775;-69
2023/01/13 08:01:35;;;;;;;0.80;0.80;;;;;;;7.85;100.00;99925.41;5050298;28;20204;-69
2023/01/13 08:04:02;;;;;;;0.50;0.50;;;;;;;7.89;100.00;99916.00;5050950;28;20269;-68
2023/01/13 08:06:29;;;;;;;0.43;0.43;;;;;;;7.91;100.00;99924.53;5049223;28;20317;-68
2023/01/13 08:08:55;;;;;;;0.60;0.60;;;;;;;7.89;100.00;99913.47;5046121;28;20651;-70
2023/01/13 08:11:23;;;;;;;0.50;0.50;;;;;;;7.99;100.00;99920.16;5045737;28;20208;-70
2023/01/13 08:13:50;;;;;;;0.43;0.43;;;;;;;8.07;100.00;99931.16;5047194;28;20703;-70
2023/01/13 08:16:17;;;;;;;0.60;0.60;;;;;;;8.08;100.00;99925.16;5050280;28;20258;-71
2023/01/13 08:18:44;;;;;;;0.50;0.50;;;;;;;8.12;100.00;99929.38;5049598;28;20283;-71
2023/01/13 08:21:12;;;;;;;0.63;0.63;;;;;;;8.11;100.00;99932.78;5044210;28;20713;-72
2023/01/13 08:23:40;;;;;;;0.53;0.53;;;;;;;8.06;100.00;99924.34;5049363;28;20243;-71
2023/01/13 08:26:09;;;;;;;0.50;0.50;;;;;;;8.02;100.00;99916.72;5051072;28;20208;-71
2023/01/13 08:28:39;;;;;;;0.50;0.50;;;;;;;8.15;100.00;99928.47;5048605;28;20201;-71
2023/01/13 08:31:08;;;;;;;0.40;0.40;;;;;;;8.21;100.00;99938.63;5040328;28;20299;-71
2023/01/13 08:33:35;;;;;;;0.50;0.50;;;;;;;8.23;100.00;99929.25;5048211;28;20283;-70
2023/01/13 08:36:04;;;;;;;4.03;1.10;;;;;;;8.27;100.00;99928.34;5048859;28;20274;-71
2023/01/13 08:38:30;;;;;;;0.50;0.50;;;;;;;8.31;100.00;99935.97;5048692;28;20635;-70
2023/01/13 08:40:57;;;;;;;0.40;0.40;;;;;;;8.29;100.00;99936.84;5049616;28;20711;-71
2023/01/13 08:43:24;;;;;;;0.50;0.50;;;;;;;8.27;100.00;99936.00;5048331;28;20208;-71
2023/01/13 08:46:03;;;;;;;0.50;0.50;;;;;;;8.33;100.00;99939.38;5047291;28;20197;-71
2023/01/13 08:48:33;;;;;;;0.57;0.57;;;;;;;8.28;100.00;99941.13;5047909;28;20209;-71
2023/01/13 08:51:04;;;;;;;0.60;0.60;;;;;;;8.34;100.00;99935.94;5048276;28;20201;-71
2023/01/13 08:53:31;;;;;;;0.40;0.40;;;;;;;8.35;100.00;99926.56;5047768;28;20213;-71
2023/01/13 08:55:58;;;;;;;0.50;0.50;;;;;;;8.28;100.00;99928.34;5048865;28;20200;-71
2023/01/13 08:58:25;;;;;;;0.47;0.47;;;;;;;8.25;100.00;99930.91;5048365;28;20681;-71
2023/01/13 09:00:52;;;;;;;0.57;0.57;;;;;;;8.35;100.00;99945.28;5048893;28;20581;-71
2023/01/13 09:03:20;;;;;;;0.60;0.60;;;;;;;8.35;100.00;99932.53;5049178;28;20205;-72
2023/01/13 09:05:47;;;;;;;0.50;0.50;;;;;;;8.43;100.00;99935.81;5046716;28;20700;-72
2023/01/13 09:08:14;;;;;;;0.50;0.50;;;;;;;8.39;100.00;99923.97;5047491;28;20213;-71
2023/01/13 09:10:40;;;;;;;0.73;0.73;;;;;;;8.50;100.00;99931.47;5047671;28;20589;-72
2023/01/13 09:13:12;;;;;;;0.70;0.70;;;;;;;8.39;100.00;99916.28;5041786;28;20213;-71
2023/01/13 09:15:39;;;;;;;0.50;0.50;;;;;;;8.43;100.00;99924.78;5043170;28;20329;-71
2023/01/13 09:18:06;;;;;;;0.40;0.40;;;;;;;8.46;100.00;99919.63;5047670;28;20201;-71
2023/01/13 09:20:34;;;;;;;0.57;0.57;;;;;;;8.53;100.00;99920.38;5044108;28;20669;-72
2023/01/13 09:23:01;;;;;;;0.40;0.40;;;;;;;8.59;100.00;99925.41;5039825;28;20259;-71
2023/01/13 09:25:28;;;;;;;0.50;0.50;;;;;;;8.59;100.00;99917.75;5041005;28;20207;-72
2023/01/13 09:27:54;;;;;;;0.43;0.43;;;;;;;8.58;100.00;99923.72;5037340;28;20716;-72
2023/01/13 09:30:23;;;;;;;0.53;0.53;;;;;;;8.55;100.00;99913.53;5043144;28;20201;-72
2023/01/13 09:34:58;;;;;;;0.73;0.73;;;;;;;8.62;100.00;99918.53;5042250;28;20205;-72
2023/01/13 09:35:38;;;;;;;0.50;0.50;;;;;;;8.66;100.00;99906.56;5046935;28;20228;-72
2023/01/13 09:38:06;;;;;;;0.90;0.90;;;;;;;8.72;100.00;99906.47;5048854;28;20291;-72
2023/01/13 09:40:33;;;;;;;0.40;0.40;;;;;;;8.83;100.00;99909.69;5050358;28;20216;-71
2023/01/13 09:45:57;;;;;;;0.50;0.50;;;;;;;8.90;100.00;99906.19;5053948;28;20263;-71
2023/01/13 09:48:32;;;;;;;0.50;0.50;;;;;;;8.89;100.00;99909.59;5053565;28;20212;-70
2023/01/13 09:51:13;;;;;;;0.50;0.50;;;;;;;8.68;100.00;99894.59;5053778;28;20261;-73
2023/01/13 09:53:47;;;;;;;0.30;0.30;;;;;;;8.77;100.00;99902.97;5053133;28;20294;-71
2023/01/13 09:56:14;;;;;;;0.50;0.50;;;;;;;8.95;100.00;99897.56;5052547;28;20199;-70
2023/01/13 09:58:42;;;;;;;0.50;0.50;;;;;;;9.00;100.00;99900.06;5053266;28;20718;-69
2023/01/13 10:01:20;;;;;;;0.50;0.50;;;;;;;9.13;100.00;99896.44;5051014;28;20669;-70
2023/01/13 10:03:48;;;;;;;0.60;0.60;;;;;;;9.05;100.00;99890.59;5050962;28;20200;-71
2023/01/13 10:06:20;;;;;;;0.50;0.50;;;;;;;9.01;100.00;99894.09;5050215;28;20252;-70
2023/01/13 10:08:49;;;;;;;0.40;0.40;;;;;;;9.14;100.00;99890.47;5050167;28;20695;-69
2023/01/13 10:14:01;;;;;;;0.70;0.70;;;;;;;9.23;100.00;99884.34;5041692;28;20197;-69
2023/01/13 10:16:40;;;;;;;0.70;0.70;;;;;;;9.38;100.00;99873.84;5053133;28;20717;-70
2023/01/13 10:19:16;;;;;;;0.40;0.40;;;;;;;9.46;100.00;99874.56;5051107;28;20219;-70
2023/01/13 10:22:15;;;;;;;0.77;0.77;;;;;;;9.53;100.00;99875.28;5050315;28;20204;-69
2023/01/13 10:24:58;;;;;;;0.47;0.47;;;;;;;9.49;100.00;99860.00;5046247;28;20193;-69
2023/01/13 10:27:33;;;;;;;0.50;0.50;;;;;;;9.47;100.00;99858.31;5051152;28;20753;-70
2023/01/13 10:30:11;;;;;;;0.50;0.50;;;;;;;9.58;100.00;99855.56;5052411;28;20622;-70
2023/01/13 10:32:38;;;;;;;0.50;0.50;;;;;;;9.58;100.00;99861.53;5051814;28;20200;-70
2023/01/13 10:35:06;;;;;;;0.50;0.50;;;;;;;9.71;100.00;99857.88;5050315;28;20212;-70
2023/01/13 10:37:34;;;;;;;0.80;0.80;;;;;;;9.76;100.00;99848.38;5052178;28;20202;-70
2023/01/13 10:40:02;;;;;;;0.40;0.40;;;;;;;9.71;100.00;99844.22;5051907;28;20196;-70
2023/01/13 10:42:29;;;;;;;0.50;0.50;;;;;;;9.73;100.00;99850.13;5047259;28;20232;-72
2023/01/13 10:44:57;;;;;;;0.40;0.40;;;;;;;9.79;100.00;99845.75;5051071;28;20197;-70
2023/01/13 10:47:26;;;;;;;0.50;0.50;;;;;;;9.69;100.00;99851.09;5050566;28;20664;-72
2023/01/13 10:50:04;;;;;;;0.53;0.53;;;;;;;9.65;100.00;99831.53;5050292;28;20581;-70
2023/01/13 10:52:32;;;;;;;0.40;0.40;;;;;;;9.81;100.00;99838.03;5052069;28;20235;-72
2023/01/13 10:55:00;;;;;;;0.60;0.60;;;;;;;9.82;100.00;99843.13;5051577;28;20220;-71
2023/01/13 10:57:28;;;;;;;0.40;0.40;;;;;;;9.80;100.00;99841.47;5051860;28;20284;-71
2023/01/13 10:59:55;;;;;;;0.67;0.67;;;;;;;9.87;100.00;99843.03;5050642;28;20201;-72
2023/01/13 11:02:28;;;;;;;0.40;0.40;;;;;;;9.87;100.00;99832.78;5045395;28;20204;-72
2023/01/13 11:05:02;;;;;;;0.43;0.43;;;;;;;9.92;100.00;99836.09;5045776;28;20285;-71
2023/01/13 11:07:32;;;;;;;0.43;0.43;;;;;;;9.93;100.00;99830.09;5050703;28;20196;-71
2023/01/13 11:10:10;;;;;;;0.50;0.50;;;;;;;10.06;100.00;99833.25;5050820;28;20208;-71
2023/01/13 11:12:45;;;;;;;0.50;0.50;;;;;;;10.17;100.00;99834.75;5048748;28;20223;-71
2023/01/13 11:15:18;;;;;;;0.50;0.50;;;;;;;10.13;100.00;99830.53;5049585;28;20220;-70
2023/01/13 11:17:50;;;;;;;1.23;1.13;;;;;;;10.10;100.00;99828.03;5050105;28;20197;-70
2023/01/13 11:20:28;;;;;;;0.57;0.57;;;;;;;10.19;100.00;99825.31;5049690;28;20292;-70
2023/01/13 11:22:58;;;;;;;0.40;0.40;;;;;;;10.15;100.00;99823.69;5050925;28;20208;-70
2023/01/13 11:25:32;;;;;;;0.60;0.60;;;;;;;10.25;100.00;99822.59;5039250;28;20209;-70
2023/01/13 11:28:03;;;;;;;0.40;0.40;;;;;;;10.24;100.00;99823.47;5049228;28;20201;-70
2023/01/13 11:30:36;;;;;;;0.40;0.40;;;;;;;10.17;100.00;99816.81;5049429;28;20197;-70
2023/01/13 11:33:28;;;;;;;0.50;0.50;;;;;;;10.16;100.00;99819.41;5046277;28;20200;-69
2023/01/13 11:36:05;;;;;;;0.40;0.40;;;;;;;10.13;100.00;99825.41;5047617;28;20284;-70
2023/01/13 11:38:40;;;;;;;0.50;0.50;;;;;;;10.05;100.00;99817.03;5048868;28;20204;-70
2023/01/13 11:41:16;;;;;;;0.50;0.50;;;;;;;10.05;100.00;99817.03;5049447;28;20200;-69
2023/01/13 11:43:50;;;;;;;0.40;0.40;;;;;;;10.14;100.00;99811.78;5050218;28;20203;-69
2023/01/13 11:46:17;;;;;;;0.50;0.50;;;;;;;10.13;100.00;99815.16;5051839;28;20192;-69
2023/01/13 11:48:44;;;;;;;0.50;0.50;;;;;;;10.17;99.63;99806.56;5048296;28;20205;-69
2023/01/13 11:51:24;;;;;;;0.50;0.50;;;;;;;10.16;99.74;99817.69;5050847;28;20668;-70
2023/01/13 11:54:21;;;;;;;0.50;0.50;;;;;;;10.19;98.68;99820.19;5050137;28;20227;-69
2023/01/13 11:57:14;;;;;;;0.50;0.50;;;;;;;10.19;98.33;99809.09;5050166;28;20227;-70
2023/01/13 12:00:00;;;;;;;0.40;0.40;;;;;;;10.32;99.43;99816.47;5047747;28;20212;-69
2023/01/13 12:02:47;;;;;;;0.87;0.87;;;;;;;10.33;98.73;99813.03;5050213;28;20216;-69
2023/01/13 12:05:23;;;;;;;0.60;0.60;;;;;;;10.41;97.94;99808.56;5046557;28;20235;-69
2023/01/13 12:08:00;;;;;;;0.60;0.60;;;;;;;10.31;98.17;99803.69;5048783;28;20261;-69
2023/01/13 12:10:42;;;;;;;0.40;0.40;;;;;;;10.44;98.59;99807.66;5049569;28;20212;-69
2023/01/13 12:13:24;;;;;;;0.50;0.50;;;;;;;10.54;97.93;99801.44;5049656;28;20235;-70
2023/01/13 12:16:10;;;;;;;0.40;0.40;;;;;;;10.62;97.10;99808.97;5048624;28;20232;-69
2023/01/13 12:19:12;;;;;;;1.63;1.53;;;;;;;10.61;97.12;99804.69;5049665;28;20200;-70
2023/01/13 12:22:01;;;;;;;0.60;0.60;;;;;;;10.41;97.39;99798.31;5029923;28;20654;-69
2023/01/13 12:24:33;;;;;;;0.50;0.50;;;;;;;10.41;97.04;99795.75;5049679;28;20205;-69
2023/01/13 12:27:05;;;;;;;0.50;0.50;;;;;;;10.64;96.92;99802.91;5048600;28;20205;-69
2023/01/13 12:29:36;;;;;;;0.50;0.50;;;;;;;10.46;95.55;99804.19;5042411;28;20201;-69
2023/01/13 12:32:08;;;;;;;0.97;0.83;;;;;;;10.28;95.50;99804.59;5039353;28;20209;-69
2023/01/13 12:35:03;;;;;;;0.93;0.93;;;;;;;10.31;96.22;99804.53;5038167;28;20196;-69